Latest Weather Observations for Glen Innes Airport

IDN60801

Issued at 7:32 pm EST Sunday 20 August 2017 (issued every 30 minutes, with the page automatically refreshed every 10 minutes)

About weather observations | Map of weather stations | Latest weather observations for NSW | Other Formats
Station Details ID: 056243 Name: GLEN INNES AIRPORT AWS Lat: -29.68 Lon: 151.69 Height: 1044.3 m
Data from the previous 72 hours. | See also: Recent months at Glen Innes Airport
Date/Time
EST
Temp
°C
App
Temp
°C
Dew
Point
°C
Rel
Hum
%
Delta-T
°C
Wind Press
QNH
hPa
Press
MSL
hPa
Rain since
9am
mm
Dir  Spd
km/h
Gust
km/h
Spd
kts
Gust
kts
20/07:30pm 2.6 -1.7 -1.7 73 1.6 ESE 11 13 6 7 1020.9 1021.1 0.0
20/07:00pm 3.2 -2.2 -1.5 71 1.8 ESE 17 17 9 9 1020.4 1020.5 0.0
20/06:30pm 3.0 -2.1 -2.1 69 1.9 SE 15 17 8 9 1020.2 1020.3 0.0
20/06:00pm 3.3 -1.6 -3.7 60 2.5 SE 13 15 7 8 1019.8 1020.0 0.0
20/05:30pm 7.9 2.8 -2.1 49 4.0 SE 15 17 8 9 1019.8 1020.0 0.0
20/05:00pm 10.3 5.6 -2.0 42 5.0 SE 13 15 7 8 1019.8 1020.0 0.0
20/04:30pm 11.5 5.9 -3.0 36 5.9 ESE 17 20 9 11 1019.6 1019.8 0.0
20/04:00pm 12.2 6.7 -2.4 36 6.0 SE 17 22 9 12 1019.3 1019.4 0.0
20/03:30pm 12.5 7.1 -1.4 38 5.9 ESE 17 22 9 12 1018.9 1019.1 0.0
20/03:00pm 13.0 8.3 -2.1 35 6.3 SE 13 24 7 13 1018.9 1019.1 0.0
20/02:30pm 13.1 8.0 -2.0 35 6.4 SSE 15 22 8 12 1018.9 1019.1 0.0
20/02:00pm 13.0 7.8 -2.5 34 6.5 SE 15 28 8 15 1019.2 1019.3 0.0
20/01:30pm 13.2 7.8 -1.5 36 6.3 SSE 17 24 9 13 1019.3 1019.4 0.0
20/01:00pm 12.3 6.2 -4.3 31 6.6 SSE 19 28 10 15 1019.5 1019.6 0.0
20/12:30pm 13.1 6.9 -2.8 33 6.6 SE 20 30 11 16 1019.6 1019.8 0.0
20/12:00pm 12.4 5.5 -3.0 34 6.3 SSE 24 32 13 17 1020.0 1020.2 0.0
20/11:30am 12.4 5.8 -3.0 34 6.3 SSE 22 32 12 17 1020.5 1020.7 0.0
20/11:00am 11.8 6.0 -0.4 43 5.3 SSE 20 32 11 17 1020.7 1020.9 0.0
20/10:30am 11.0 4.3 -1.1 43 5.1 SSE 24 32 13 17 1021.0 1021.2 0.0
20/10:00am 9.8 2.2 -1.9 44 4.8 SSE 28 37 15 20 1021.2 1021.3 0.0
20/09:30am 8.5 2.5 -1.6 49 4.1 SSE 20 28 11 15 1021.0 1021.2 0.0
20/09:00am 7.2 1.5 -1.0 56 3.3 SSE 19 24 10 13 1021.3 1021.5 0.0
20/08:30am 5.8 1.0 -2.5 55 3.2 SSE 13 20 7 11 1021.2 1021.3 0.0
20/08:00am 4.4 0.2 -1.2 67 2.2 SE 11 15 6 8 1021.0 1021.2 0.0
20/07:30am 2.4 -0.3 -2.1 72 1.7 S 2 11 1 6 1020.8 1021.0 0.0
20/07:00am -0.3 -4.5 -3.5 79 1.1 S 9 11 5 6 1020.4 1020.5 0.0
20/06:30am -1.0 -4.9 -4.2 79 1.1 S 7 9 4 5 1019.9 1020.1 0.0
20/06:00am -2.9 -7.3 -5.9 80 0.8 SSW 9 11 5 6 1019.8 1020.0 0.0
20/05:30am -1.4 -4.3 -3.9 83 0.8 SSE 2 6 1 3 1019.6 1019.8 0.0
20/05:00am -2.2 -6.5 -5.3 79 0.9 SSE 9 11 5 6 1018.9 1019.1 0.0
20/04:30am -3.8 -7.6 -5.8 86 0.5 SE 6 7 3 4 1018.7 1018.8 0.0
20/04:00am -4.7 -9.2 -7.0 84 0.5 SW 9 13 5 7 1018.6 1018.7 0.0
20/03:30am -5.3 -9.4 -7.1 87 0.3 SSW 7 11 4 6 1018.5 1018.6 0.0
20/03:00am -5.1 -8.3 -6.8 88 0.3 W 2 7 1 4 1018.4 1018.5 0.0
20/02:30am -6.2 -9.2 -8.9 81 0.5 CALM 0 0 0 0 1018.6 1018.7 0.0
20/02:00am -4.5 -7.7 -7.3 81 0.7 WSW 2 7 1 4 1018.7 1018.8 0.0
20/01:30am -2.6 -6.5 -6.8 73 1.2 WNW 6 7 3 4 1018.8 1019.0 0.0
20/01:00am -1.9 -4.6 -5.7 75 1.2 CALM 0 0 0 0 1019.1 1019.2 0.0
20/12:30am -1.7 -5.1 -5.7 74 1.2 ENE 4 9 2 5 1019.2 1019.3 0.0
20/12:00am -0.6 -5.4 -6.0 67 1.8 SW 11 13 6 7 1019.2 1019.3 0.0
 
Date/Time
EST
Temp
°C
App
Temp
°C
Dew
Point
°C
Rel
Hum
%
Delta-T
°C
Wind Press
QNH
hPa
Press
MSL
hPa
Rain since
9am
mm
Dir  Spd
km/h
Gust
km/h
Spd
kts
Gust
kts
19/11:30pm -0.3 -4.7 -6.1 65 1.9 WSW 9 13 5 7 1019.3 1019.4 0.0
19/11:00pm 0.5 -5.0 -5.7 63 2.1 SW 15 19 8 10 1019.4 1019.5 0.0
19/10:30pm 0.0 -5.5 -5.8 65 1.9 WSW 15 20 8 11 1019.5 1019.6 0.0
19/10:00pm -0.4 -4.9 -7.0 61 2.1 W 9 13 5 7 1019.7 1019.9 0.0
19/09:30pm 0.5 -4.0 -6.6 59 2.4 WNW 9 9 5 5 1019.4 1019.5 0.0
19/09:00pm 1.0 -4.9 -6.1 59 2.4 SW 17 20 9 11 1018.8 1019.0 0.0
19/08:30pm 0.8 -4.1 -6.7 57 2.5 WSW 11 15 6 8 1019.2 1019.3 0.0
19/08:00pm 1.7 -3.5 -6.6 54 2.9 SW 13 19 7 10 1018.9 1019.1 0.0
19/07:30pm 2.8 -1.3 -6.6 50 3.3 WSW 7 13 4 7 1018.8 1019.0 0.0
19/07:00pm 3.3 -2.7 -6.6 48 3.5 WSW 17 24 9 13 1018.4 1018.5 0.0
19/06:30pm 4.0 -2.0 -6.6 46 3.6 SW 17 24 9 13 1018.2 1018.3 0.0
19/06:00pm 4.9 -1.7 -6.6 43 4.0 SW 20 35 11 19 1018.1 1018.2 0.0
19/05:30pm 5.2 -1.1 -6.3 43 4.0 SW 19 26 10 14 1017.6 1017.7 0.0
19/05:00pm 6.3 -2.1 -6.3 40 4.5 SW 30 43 16 23 1017.1 1017.1 0.0
19/04:31pm 7.0 -1.9 -6.7 37 4.8 SW 32 50 17 27 1016.8 1016.9 0.0
19/04:30pm 7.0 -2.0 -6.7 37 4.8 WSW 33 50 18 27 1016.8 1016.9 0.0
19/04:22pm 7.2 -0.9 -6.8 36 5.0 WSW 28 50 15 27 1016.5 1016.6 0.0
19/04:00pm 7.8 -1.2 -6.7 35 5.2 WSW 33 46 18 25 1016.2 1016.2 0.0
19/03:30pm 8.2 -0.8 -8.7 29 5.8 SW 32 48 17 26 1016.2 1016.2 0.0
19/03:21pm 8.1 -0.5 -8.4 30 5.7 WSW 30 48 16 26 1016.2 1016.2 0.0
19/03:00pm 8.7 -0.7 -6.3 34 5.5 WSW 35 52 19 28 1016.0 1016.0 0.0
19/02:40pm 8.6 -0.9 -7.1 32 5.6 WSW 35 54 19 29 1015.7 1015.8 0.0
19/02:30pm 8.6 -1.3 -7.5 31 5.7 WSW 37 52 20 28 1015.8 1015.9 0.0
19/02:21pm 9.1 -0.3 -6.3 33 5.6 WSW 35 54 19 29 1015.6 1015.7 0.0
19/02:00pm 8.9 -0.5 -6.1 34 5.5 WSW 35 50 19 27 1015.6 1015.7 0.0
19/01:36pm 8.5 -1.7 -6.8 33 5.5 WSW 39 57 21 31 1015.6 1015.7 0.0
19/01:30pm 8.9 -1.2 -6.1 34 5.5 WSW 39 54 21 29 1015.5 1015.6 0.0
19/01:14pm 8.1 -3.0 -8.4 30 5.7 WSW 43 61 23 33 1015.5 1015.6 0.0
19/01:00pm 8.6 -2.0 -7.1 32 5.6 WSW 41 54 22 29 1015.7 1015.8 0.0
19/12:44pm 8.6 -0.7 -5.6 36 5.3 WSW 35 54 19 29 1015.7 1015.8 0.0
19/12:30pm 8.4 -1.7 -5.8 36 5.2 WSW 39 50 21 27 1015.8 1015.9 0.0
19/12:00pm 7.9 -1.5 -5.9 37 5.0 WSW 35 46 19 25 1016.3 1016.4 0.0
19/11:30am 8.0 -0.6 -4.4 41 4.7 WSW 32 44 17 24 1016.5 1016.6 0.0
19/11:00am 7.3 -1.9 -4.7 42 4.5 WSW 35 48 19 26 1017.0 1017.0 0.0
19/10:48am 6.7 -2.2 -5.3 42 4.4 SW 33 52 18 28 1017.0 1017.0 0.0
19/10:30am 6.3 -2.4 -4.7 45 4.1 WSW 32 41 17 22 1017.2 1017.3 0.0
19/10:00am 5.9 -1.8 -2.9 53 3.4 SW 28 39 15 21 1017.3 1017.4 0.0
19/09:30am 5.3 -3.1 -2.8 56 3.1 WSW 32 43 17 23 1017.3 1017.4 0.0
19/09:00am 4.3 -3.3 -2.5 61 2.6 WSW 28 37 15 20 1017.3 1017.4 0.0
19/08:30am 3.4 -3.8 -2.3 66 2.2 SW 26 33 14 18 1017.1 1017.1 0.0
19/08:00am 2.5 -4.3 -2.0 72 1.7 WSW 24 33 13 18 1016.7 1016.8 0.0
19/07:30am 1.5 -4.6 -2.4 75 1.4 WSW 20 30 11 16 1016.4 1016.5 0.0
19/07:00am 0.4 -5.5 -2.5 81 1.1 WSW 19 26 10 14 1016.4 1016.5 0.0
19/06:30am 0.0 -6.5 -2.7 82 1.0 WSW 22 30 12 16 1016.3 1016.4 0.0
19/06:00am 0.3 -6.2 -2.7 80 1.1 WSW 22 30 12 16 1016.1 1016.1 0.0
19/05:30am 0.5 -6.0 -2.7 79 1.2 WSW 22 30 12 16 1015.5 1015.6 0.0
19/05:00am 0.7 -5.8 -2.7 78 1.3 WSW 22 30 12 16 1015.2 1015.2 0.0
19/04:30am 1.0 -5.5 -2.7 76 1.4 WSW 22 32 12 17 1015.2 1015.2 0.0
19/04:00am 1.4 -5.5 -2.9 73 1.6 WSW 24 32 13 17 1015.3 1015.3 0.0
19/03:30am 1.9 -5.4 -3.0 70 1.8 WSW 26 39 14 21 1015.3 1015.3 0.0
19/03:00am 1.9 -4.7 -3.4 68 2.0 WSW 22 35 12 19 1015.5 1015.6 0.0
19/02:30am 2.3 -5.1 -3.6 65 2.1 WSW 26 39 14 21 1015.7 1015.8 0.0
19/02:00am 2.3 -4.7 -3.8 64 2.2 WSW 24 32 13 17 1016.0 1016.0 0.0
19/01:30am 2.7 -4.3 -3.8 62 2.3 WSW 24 32 13 17 1016.1 1016.1 0.0
19/01:00am 2.7 -4.4 -4.1 61 2.4 WSW 24 35 13 19 1016.4 1016.5 0.0
19/12:30am 3.3 -4.5 -4.2 58 2.7 WSW 28 35 15 19 1016.5 1016.6 0.0
19/12:00am 3.7 -4.1 -4.2 56 2.9 WSW 28 37 15 20 1016.5 1016.6 0.0
 
Date/Time
EST
Temp
°C
App
Temp
°C
Dew
Point
°C
Rel
Hum
%
Delta-T
°C
Wind Press
QNH
hPa
Press
MSL
hPa
Rain since
9am
mm
Dir  Spd
km/h
Gust
km/h
Spd
kts
Gust
kts
18/11:30pm 4.2 -4.0 -4.3 54 3.1 WSW 30 43 16 23 1016.6 1016.7 0.0
18/11:00pm 4.3 -3.5 -4.2 54 3.1 WSW 28 39 15 21 1016.7 1016.8 0.0
18/10:30pm 4.8 -3.8 -4.2 52 3.3 WSW 32 43 17 23 1017.1 1017.1 0.0
18/10:00pm 5.0 -3.6 -4.0 52 3.3 WSW 32 43 17 23 1017.1 1017.1 0.0
18/09:30pm 5.3 -3.3 -4.0 51 3.4 WSW 32 44 17 24 1016.8 1016.9 0.0
18/09:00pm 5.5 -3.1 -4.1 50 3.6 WSW 32 39 17 21 1017.0 1017.0 0.0
18/08:30pm 5.4 -2.4 -4.2 50 3.5 WSW 28 35 15 19 1016.8 1016.9 0.0
18/08:00pm 5.7 -1.3 -3.9 50 3.6 W 24 35 13 19 1016.5 1016.6 0.0
18/07:30pm 5.9 -1.6 -4.3 48 3.8 W 26 39 14 21 1016.3 1016.4 0.0
18/07:00pm 5.9 -1.6 -4.3 48 3.8 W 26 33 14 18 1015.8 1015.9 0.0
18/06:30pm 6.8 -1.8 -4.0 46 4.1 W 32 41 17 22 1015.5 1015.6 0.0
18/06:00pm 7.0 -1.6 -3.8 46 4.1 W 32 43 17 23 1015.1 1015.1 0.0
18/05:30pm 8.1 -0.7 -4.0 42 4.6 W 33 43 18 23 1014.5 1014.5 0.0
18/05:21pm 8.1 -0.6 -3.7 43 4.6 W 33 52 18 28 1014.5 1014.5 0.0
18/05:00pm 9.1 -0.8 -3.8 40 5.0 W 39 52 21 28 1014.2 1014.2 0.0
18/04:30pm 10.1 -0.2 -3.9 37 5.5 W 41 52 22 28 1014.0 1014.0 0.0
18/04:00pm 10.8 1.3 -3.7 36 5.8 W 37 54 20 29 1013.7 1013.7 0.0
18/03:32pm 10.9 0.2 -2.8 38 5.6 W 44 63 24 34 1013.4 1013.4 0.0
18/03:30pm 11.0 -0.1 -2.8 38 5.6 W 46 63 25 34 1013.4 1013.4 0.0
18/03:00pm 11.4 0.4 -2.4 38 5.7 W 46 63 25 34 1013.4 1013.4 0.0
18/02:30pm 11.4 -0.5 -3.5 35 6.0 W 50 69 27 37 1013.2 1013.2 0.0
18/02:23pm 11.8 0.6 -3.5 34 6.2 W 46 67 25 36 1013.1 1013.1 0.0
18/02:00pm 12.7 2.0 -2.7 34 6.4 W 44 57 24 31 1013.3 1013.3 0.0
18/01:37pm 12.3 0.6 -4.3 31 6.6 WNW 48 69 26 37 1013.2 1013.2 0.0
18/01:30pm 12.2 0.5 -4.4 31 6.6 W 48 65 26 35 1013.2 1013.2 0.0
18/01:10pm 12.6 1.6 -4.9 29 6.9 W 44 65 24 35 1013.3 1013.3 0.0
18/01:00pm 12.7 1.1 -4.0 31 6.7 W 48 61 26 33 1013.6 1013.6 0.0
18/12:42pm 12.5 0.4 -4.6 30 6.8 W 50 69 27 37 1013.7 1013.7 0.0
18/12:30pm 12.2 -1.0 -4.8 30 6.7 W 56 70 30 38 1013.9 1013.9 0.0
18/12:09pm 12.5 2.3 -3.3 33 6.4 W 41 61 22 33 1014.1 1014.1 0.0
18/12:00pm 12.0 1.7 -0.8 41 5.5 W 43 54 23 29 1014.4 1014.4 0.0
18/11:46am 12.4 3.0 -0.1 42 5.5 W 39 57 21 31 1014.6 1014.7 0.0
18/11:30am 11.8 1.5 -1.0 41 5.5 W 43 54 23 29 1014.8 1014.9 0.0
18/11:00am 11.3 -0.5 -2.5 38 5.7 W 50 70 27 38 1015.0 1015.0 0.0
18/10:30am 11.4 0.9 -2.4 38 5.7 W 43 63 23 34 1015.5 1015.6 0.0
18/10:00am 11.1 2.0 -0.4 45 4.9 W 37 54 20 29 1015.7 1015.8 0.0
18/09:30am 10.2 0.3 -1.2 45 4.8 W 41 54 22 29 1015.7 1015.8 0.0
18/09:02am 10.3 0.7 -1.4 44 4.9 W 39 57 21 31 1015.6 1015.7 0.0
18/09:00am 10.0 0.0 -2.0 43 4.9 W 41 57 22 31 1015.6 1015.7 0.0
18/08:30am 10.4 2.1 -1.9 42 5.1 W 32 46 17 25 1015.5 1015.6 0.0
18/08:00am 9.6 1.1 -3.0 41 5.0 W 32 46 17 25 1015.3 1015.3 0.0
18/07:30am 8.5 0.8 -3.0 44 4.5 W 28 41 15 22 1015.1 1015.1 0.0
18/07:00am 7.3 0.3 -3.2 47 4.1 W 24 32 13 17 1014.8 1014.9 0.0
18/06:30am 6.0 -1.0 -3.9 49 3.7 W 24 28 13 15 1014.7 1014.8 0.0
18/06:00am 6.0 -0.3 -3.6 50 3.6 W 20 28 11 15 1014.5 1014.5 0.0
18/05:30am 6.7 -0.7 -3.8 47 4.0 W 26 32 14 17 1014.2 1014.2 0.0
18/05:00am 6.4 -0.6 -3.8 48 3.9 W 24 32 13 17 1014.1 1014.1 0.0
18/04:30am 6.6 -0.4 -3.9 47 4.0 W 24 33 13 18 1013.9 1013.9 0.0
18/04:00am 6.8 0.1 -4.0 46 4.1 W 22 28 12 15 1013.9 1013.9 0.0
18/03:30am 6.3 0.0 -3.9 48 3.8 W 20 30 11 16 1014.1 1014.1 0.0
18/03:00am 7.1 0.5 -3.4 47 4.0 W 22 28 12 15 1014.3 1014.3 0.0
18/02:30am 7.7 0.4 -3.2 46 4.2 W 26 35 14 19 1014.4 1014.4 0.0
18/02:00am 7.9 0.3 -2.4 48 4.1 W 28 35 15 19 1014.5 1014.5 0.0
18/01:30am 7.7 0.5 -2.0 50 3.9 W 26 33 14 18 1014.6 1014.7 0.0
18/01:00am 7.6 0.8 -1.6 52 3.7 W 24 32 13 17 1014.7 1014.8 0.0
18/12:30am 7.1 0.0 -1.6 54 3.5 W 26 32 14 17 1014.8 1014.9 0.0
18/12:00am 7.1 0.4 -1.3 55 3.4 W 24 32 13 17 1014.8 1014.9 0.0
 
Date/Time
EST
Temp
°C
App
Temp
°C
Dew
Point
°C
Rel
Hum
%
Delta-T
°C
Wind Press
QNH
hPa
Press
MSL
hPa
Rain since
9am
mm
Dir  Spd
km/h
Gust
km/h
Spd
kts
Gust
kts
17/11:30pm 6.3 -0.4 -1.1 59 3.0 WNW 24 28 13 15 1015.1 1015.1 0.0
17/11:00pm 5.8 -0.8 -0.5 64 2.6 WNW 24 26 13 14 1015.2 1015.2 0.0
17/10:30pm 5.0 -0.9 -0.6 67 2.3 W 20 24 11 13 1015.3 1015.3 0.0
17/10:00pm 5.5 -0.3 -0.1 67 2.3 W 20 24 11 13 1015.3 1015.3 0.0
17/09:30pm 5.5 -0.6 0.1 68 2.2 W 22 26 12 14 1015.4 1015.4 0.0
17/09:00pm 6.1 0.3 0.2 66 2.4 W 20 22 11 12 1015.5 1015.6 0.0
17/08:30pm 6.6 0.5 0.3 64 2.6 W 22 26 12 14 1015.6 1015.7 0.0
17/08:00pm 6.1 0.3 0.2 66 2.4 W 20 24 11 13 1015.6 1015.7 0.0

Other Formats:

Comma delimited format used in spreadsheet applications
http://www.bom.gov.au/fwo/IDN60801/IDN60801.94588.axf

JavaScript Object Notation format (JSON) in row-major order
http://www.bom.gov.au/fwo/IDN60801/IDN60801.94588.json